This is the latest recevied weather packets stored in our database for station/object VR2HK-13. If no packets are shown the sender has not sent any weather packets the latest 1 day(s).
| Time | Temp. | Humidity | Pressure | Rain* | Wind** | Luminosity | Snow |
|---|---|---|---|---|---|---|---|
| 1836274619 | 25° C | 92% | 1007.3 hPa | 6.35 mm | 2.68 m/s, 218° | - | - |
| 1836274616 | 25° C | 92% | 1007.3 hPa | 6.35 mm | 2.68 m/s, 224° | - | - |
| 1836274467 | 25° C | 91% | 1007.2 hPa | 6.1 mm | 1.79 m/s, 163° | - | - |
| 1836274317 | 25° C | 92% | 1007.5 hPa | 6.86 mm | 2.24 m/s, 159° | - | - |
| 1836274259 | 25° C | 92% | 1007.5 hPa | 6.86 mm | 3.13 m/s, 178° | - | - |
| 1836274228 | 25° C | 92% | 1007.2 hPa | 6.35 mm | 2.24 m/s, 101° | - | - |
| 1836274166 | 25° C | 92% | 1007.2 hPa | 6.35 mm | 1.79 m/s, 151° | - | - |
| 1836274016 | 25° C | 92% | 1007.5 hPa | 6.35 mm | 4.02 m/s, 194° | - | - |
| 1836273898 | 25° C | 92% | 1007.5 hPa | 6.86 mm | 4.02 m/s, 234° | - | - |
| 1778065507 | 23.89° C | 83% | 1011.9 hPa | 0 mm | 2.24 m/s, 290° | - | - |
| 1778065270 | 23.89° C | 83% | 1011.9 hPa | 0 mm | 0 m/s | - | - |
| 1778065208 | 23.89° C | 83% | 1011.9 hPa | 0 mm | 0.45 m/s, 4° | - | - |
| 1778064960 | 23.89° C | 83% | 1012 hPa | 0 mm | 1.34 m/s, 48° | - | - |
| 1778064909 | 23.89° C | 83% | 1011.9 hPa | 0 mm | 1.79 m/s, 190° | - | - |
| 1778064649 | 23.89° C | 83% | 1011.9 hPa | 0 mm | 1.79 m/s, 282° | - | - |
| 1778064608 | 23.89° C | 82% | 1011.8 hPa | 0 mm | 1.79 m/s, 277° | - | - |
| 1778064339 | 23.89° C | 82% | 1011.8 hPa | 0 mm | 0.89 m/s, 277° | - | - |
| 1778064308 | 23.89° C | 82% | 1011.9 hPa | 0 mm | 0.89 m/s, 268° | - | - |
| 1778064030 | 23.89° C | 82% | 1011.8 hPa | 0 mm | 0.89 m/s, 288° | - | - |
| 1778064008 | 23.89° C | 82% | 1011.8 hPa | 0 mm | 0.45 m/s, 358° | - | - |
| 1778063720 | 23.89° C | 82% | 1011.8 hPa | 0 mm | 0.45 m/s, 283° | - | - |
| 1778063708 | 23.89° C | 82% | 1011.8 hPa | 0 mm | 0 m/s | - | - |
| 1778063410 | 23.89° C | 82% | 1011.8 hPa | 0.25 mm | 1.34 m/s, 276° | - | - |
| 1778063408 | 23.89° C | 82% | 1011.8 hPa | 0.25 mm | 1.34 m/s, 283° | - | - |
| 1778063108 | 23.89° C | 82% | 1011.7 hPa | 0.25 mm | 0.89 m/s, 329° | - | - |
* Rain latest hour (hover to see other rain measurements)
** Current wind speed in m/s (hover to see current wind gust speed)